createdAt,value
2023-05-08T00:02:12.175Z,16.90
2023-05-08T00:04:43.553Z,17.70
2023-05-08T00:07:11.541Z,15.90
2023-05-08T00:09:39.399Z,15.30
2023-05-08T00:12:07.164Z,16.40
2023-05-08T00:14:35.013Z,16.80
2023-05-08T00:17:03.328Z,17.00
2023-05-08T00:19:31.348Z,19.90
2023-05-08T00:21:59.265Z,18.70
2023-05-08T00:24:27.005Z,17.90
2023-05-08T00:26:54.789Z,17.10
2023-05-08T00:29:22.585Z,18.30
2023-05-08T00:31:50.459Z,17.00
2023-05-08T00:34:18.236Z,16.60
2023-05-08T00:36:46.322Z,17.40
2023-05-08T00:39:14.341Z,17.40
2023-05-08T00:41:42.670Z,17.60
2023-05-08T00:44:10.566Z,19.30
2023-05-08T00:46:38.514Z,20.00
2023-05-08T00:49:06.841Z,17.90
2023-05-08T00:51:34.625Z,16.90
2023-05-08T00:54:03.002Z,16.90
2023-05-08T00:56:34.230Z,16.30
2023-05-08T00:59:04.610Z,16.40
2023-05-08T01:01:33.129Z,16.70
2023-05-08T01:04:03.692Z,15.40
2023-05-08T01:06:34.598Z,16.10
2023-05-08T01:09:10.186Z,15.80
2023-05-08T01:11:41.594Z,15.50
2023-05-08T01:14:17.734Z,14.30
2023-05-08T01:17:01.779Z,15.80
2023-05-08T01:19:40.923Z,14.30
2023-05-08T01:22:22.194Z,14.60
2023-05-08T01:24:53.066Z,14.60
2023-05-08T01:27:23.905Z,13.50
2023-05-08T01:30:10.875Z,14.50
2023-05-08T01:32:43.741Z,14.10
2023-05-08T01:35:21.599Z,13.90
2023-05-08T01:37:49.575Z,14.20
2023-05-08T01:40:17.429Z,14.70
2023-05-08T01:43:06.424Z,13.70
2023-05-08T01:45:45.064Z,14.00
2023-05-08T01:48:33.203Z,13.90
2023-05-08T01:51:04.378Z,14.20
2023-05-08T01:53:37.762Z,13.40
2023-05-08T01:56:10.712Z,14.40
2023-05-08T01:58:39.289Z,12.60
2023-05-08T02:01:08.208Z,13.10
2023-05-08T02:03:36.820Z,13.70
2023-05-08T02:06:05.385Z,12.40
2023-05-08T02:08:34.614Z,13.00
2023-05-08T02:11:03.157Z,13.80
2023-05-08T02:13:32.158Z,13.40
2023-05-08T02:16:00.805Z,12.60
2023-05-08T02:18:31.832Z,12.70
2023-05-08T02:21:00.876Z,13.60
2023-05-08T02:23:28.803Z,13.20
2023-05-08T02:25:57.213Z,13.40
2023-05-08T02:28:25.525Z,13.10
2023-05-08T02:30:53.946Z,13.50
2023-05-08T02:33:22.059Z,13.50
2023-05-08T02:35:50.909Z,15.10
2023-05-08T02:38:20.959Z,15.20
2023-05-08T02:40:51.037Z,13.10
2023-05-08T02:43:19.025Z,14.60
2023-05-08T02:45:57.121Z,13.90
2023-05-08T02:48:39.290Z,13.20
2023-05-08T02:51:22.371Z,15.30
2023-05-08T02:53:56.010Z,14.70
2023-05-08T02:56:32.857Z,13.90
2023-05-08T02:59:13.334Z,13.30
2023-05-08T03:02:03.376Z,13.60
2023-05-08T03:04:32.358Z,14.20
2023-05-08T03:07:01.520Z,15.40
2023-05-08T03:09:36.904Z,16.30
2023-05-08T03:12:06.713Z,16.20
2023-05-08T03:14:37.551Z,15.90
2023-05-08T03:17:06.710Z,17.20
2023-05-08T03:19:36.045Z,16.70
2023-05-08T03:22:05.361Z,15.60
2023-05-08T03:24:34.928Z,14.70
2023-05-08T03:27:03.398Z,14.60
2023-05-08T03:29:38.643Z,14.20
2023-05-08T03:32:07.095Z,13.80
2023-05-08T03:34:36.155Z,13.40
2023-05-08T03:37:03.941Z,12.20
2023-05-08T03:39:31.829Z,13.40
2023-05-08T03:41:59.743Z,13.20
2023-05-08T03:44:37.815Z,12.90
2023-05-08T03:47:08.665Z,12.70
2023-05-08T03:49:37.986Z,13.20
2023-05-08T03:52:13.687Z,12.50
2023-05-08T03:54:41.519Z,12.20
2023-05-08T03:57:09.413Z,12.10
2023-05-08T03:59:46.500Z,13.20
2023-05-08T04:02:34.844Z,18.10
2023-05-08T04:05:10.698Z,15.20
2023-05-08T04:07:43.256Z,13.70
2023-05-08T04:10:18.098Z,13.70
2023-05-08T04:12:59.926Z,12.20
2023-05-08T04:15:32.311Z,11.50
2023-05-08T04:18:04.924Z,11.20
2023-05-08T04:20:33.547Z,11.50
2023-05-08T04:23:02.409Z,13.60
2023-05-08T04:25:39.983Z,16.10
2023-05-08T04:28:07.969Z,21.70
2023-05-08T04:30:36.006Z,17.70
2023-05-08T04:33:04.378Z,18.20
2023-05-08T04:35:33.876Z,15.40
2023-05-08T04:38:02.107Z,14.60
2023-05-08T04:40:30.022Z,12.20
2023-05-08T04:42:57.692Z,13.50
2023-05-08T04:45:25.508Z,13.80
2023-05-08T04:47:53.296Z,15.80
2023-05-08T04:50:21.150Z,18.00
2023-05-08T04:52:48.966Z,15.10
2023-05-08T04:55:16.843Z,13.10
2023-05-08T04:57:44.628Z,11.70
2023-05-08T05:00:12.979Z,10.30
2023-05-08T05:02:40.729Z,10.50
2023-05-08T05:05:08.918Z,11.40
2023-05-08T05:07:36.881Z,11.70
2023-05-08T05:10:04.950Z,13.90
2023-05-08T05:12:32.934Z,11.90
2023-05-08T05:15:00.761Z,11.30
2023-05-08T05:17:30.381Z,11.00
2023-05-08T05:19:58.409Z,11.90
2023-05-08T05:22:26.364Z,9.70
2023-05-08T05:24:54.242Z,9.40
2023-05-08T05:27:22.138Z,8.70
2023-05-08T05:29:50.288Z,8.40
2023-05-08T05:32:18.106Z,9.20
2023-05-08T05:34:45.898Z,8.00
2023-05-08T05:37:13.789Z,9.20
2023-05-08T05:39:41.533Z,7.70
2023-05-08T05:42:09.373Z,7.60
2023-05-08T05:44:39.912Z,7.40
2023-05-08T05:47:10.372Z,6.70
2023-05-08T05:49:39.775Z,7.30
2023-05-08T05:52:07.704Z,6.50
2023-05-08T05:54:35.441Z,5.90
2023-05-08T05:57:03.546Z,5.80
2023-05-08T05:59:31.654Z,5.10
2023-05-08T06:01:59.501Z,5.00
2023-05-08T06:04:27.850Z,4.60
2023-05-08T06:06:55.756Z,4.50
2023-05-08T06:09:23.556Z,4.40
2023-05-08T06:11:54.511Z,3.80
2023-05-08T06:14:22.186Z,4.00
2023-05-08T06:16:49.969Z,3.60
2023-05-08T06:19:18.148Z,3.30
2023-05-08T06:21:46.407Z,3.90
2023-05-08T06:24:14.667Z,3.70
2023-05-08T06:26:42.544Z,3.60
2023-05-08T06:29:14.816Z,3.80
2023-05-08T06:31:42.719Z,3.30
2023-05-08T06:34:10.922Z,3.90
2023-05-08T06:36:38.804Z,3.50
2023-05-08T06:39:06.644Z,3.40
2023-05-08T06:41:34.449Z,3.40
2023-05-08T06:44:02.336Z,4.10
2023-05-08T06:46:30.179Z,3.60
2023-05-08T06:48:58.114Z,3.30
2023-05-08T06:51:26.367Z,3.30
2023-05-08T06:53:54.177Z,3.00
2023-05-08T06:56:22.781Z,2.90
2023-05-08T06:59:00.514Z,2.60
2023-05-08T07:01:35.717Z,2.90
2023-05-08T07:04:03.901Z,2.70
2023-05-08T07:06:31.949Z,2.90
2023-05-08T07:08:59.745Z,2.90
2023-05-08T07:11:27.561Z,2.50
2023-05-08T07:13:55.944Z,2.60
2023-05-08T07:16:23.765Z,2.10
2023-05-08T07:18:51.776Z,2.00
2023-05-08T07:21:21.346Z,3.20
2023-05-08T07:23:51.771Z,2.20
2023-05-08T07:26:19.884Z,3.10
2023-05-08T07:28:47.675Z,1.90
2023-05-08T07:31:15.649Z,2.40
2023-05-08T07:33:43.683Z,1.90
2023-05-08T07:36:11.522Z,2.00
2023-05-08T07:38:39.556Z,2.10
2023-05-08T07:41:07.984Z,2.20
2023-05-08T07:43:35.926Z,1.70
2023-05-08T07:46:03.994Z,2.10
2023-05-08T07:48:31.790Z,2.00
2023-05-08T07:50:59.633Z,1.80
2023-05-08T07:53:29.783Z,2.30
2023-05-08T07:55:59.923Z,2.20
2023-05-08T07:58:27.827Z,2.20
2023-05-08T08:00:55.553Z,2.30
2023-05-08T08:03:23.390Z,2.00
2023-05-08T08:05:51.228Z,2.30
2023-05-08T08:08:19.140Z,2.20
2023-05-08T08:10:46.972Z,2.10
2023-05-08T08:13:14.869Z,2.00
2023-05-08T08:15:42.581Z,2.00
2023-05-08T08:18:10.478Z,2.00
2023-05-08T08:20:38.300Z,1.90
2023-05-08T08:23:06.418Z,2.30
2023-05-08T08:25:34.368Z,2.60
2023-05-08T08:28:02.304Z,2.20
2023-05-08T08:30:30.398Z,2.00
2023-05-08T08:33:02.154Z,1.80
2023-05-08T08:35:30.422Z,2.00
2023-05-08T08:37:58.342Z,2.20
2023-05-08T08:40:29.226Z,2.20
2023-05-08T08:42:57.547Z,2.00
2023-05-08T08:45:25.424Z,1.90
2023-05-08T08:47:53.828Z,1.80
2023-05-08T08:50:22.566Z,1.80
2023-05-08T08:53:00.826Z,1.70
2023-05-08T08:55:29.906Z,1.90
2023-05-08T08:58:12.093Z,2.20
2023-05-08T09:00:40.339Z,1.80
2023-05-08T09:03:08.638Z,2.30
2023-05-08T09:05:37.084Z,2.30
2023-05-08T09:08:05.820Z,2.50
2023-05-08T09:10:34.820Z,2.00
2023-05-08T09:13:05.820Z,2.00
2023-05-08T09:15:33.802Z,1.90
2023-05-08T09:18:02.606Z,1.90
2023-05-08T09:20:30.757Z,1.90
2023-05-08T09:23:00.987Z,1.60
2023-05-08T09:25:41.191Z,2.30
2023-05-08T09:28:16.557Z,2.40
2023-05-08T09:30:54.876Z,2.30
2023-05-08T09:33:23.821Z,2.50
2023-05-08T09:35:51.824Z,2.20
2023-05-08T09:38:36.054Z,2.10
2023-05-08T09:41:07.756Z,2.00
2023-05-08T09:43:35.991Z,1.80
2023-05-08T09:46:19.010Z,2.00
2023-05-08T09:48:46.993Z,2.00
2023-05-08T09:51:14.765Z,2.10
2023-05-08T09:53:42.607Z,1.90
2023-05-08T09:56:10.337Z,2.20
2023-05-08T09:58:41.917Z,1.90
2023-05-08T10:01:27.886Z,2.10
2023-05-08T10:03:55.943Z,2.00
2023-05-08T10:06:23.821Z,2.30
2023-05-08T10:09:10.236Z,1.70
2023-05-08T10:11:38.852Z,1.90
2023-05-08T10:14:06.803Z,1.70
2023-05-08T10:16:45.199Z,1.70
2023-05-08T10:19:15.124Z,1.80
2023-05-08T10:21:46.771Z,2.00
2023-05-08T10:24:21.694Z,2.40
2023-05-08T10:27:06.485Z,2.10
2023-05-08T10:29:47.475Z,1.50
2023-05-08T10:32:18.331Z,2.50
2023-05-08T10:34:47.251Z,2.20
2023-05-08T10:37:15.991Z,1.90
2023-05-08T10:39:44.475Z,1.80
2023-05-08T10:42:15.298Z,1.60
2023-05-08T10:44:43.316Z,2.10
2023-05-08T10:47:11.125Z,1.80
2023-05-08T10:49:57.300Z,1.70
2023-05-08T10:52:32.395Z,1.50
2023-05-08T10:55:07.390Z,1.70
2023-05-08T10:57:35.559Z,1.90
2023-05-08T11:00:03.370Z,1.80
2023-05-08T11:02:32.826Z,1.90
2023-05-08T11:05:16.821Z,1.60
2023-05-08T11:07:53.574Z,2.20
2023-05-08T11:10:22.231Z,2.20
2023-05-08T11:12:50.395Z,2.00
2023-05-08T11:15:35.074Z,1.80
2023-05-08T11:18:09.524Z,1.60
2023-05-08T11:20:40.775Z,2.20
2023-05-08T11:23:24.404Z,1.90
2023-05-08T11:26:00.191Z,2.00
2023-05-08T11:28:28.649Z,2.30
2023-05-08T11:30:56.595Z,2.50
2023-05-08T11:33:29.782Z,2.30
2023-05-08T11:35:58.841Z,2.50
2023-05-08T11:38:29.709Z,1.90
2023-05-08T11:40:58.496Z,1.90
2023-05-08T11:43:27.379Z,2.00
2023-05-08T11:45:59.830Z,1.90
2023-05-08T11:48:27.793Z,2.40
2023-05-08T11:50:55.625Z,2.00
2023-05-08T11:53:23.406Z,2.50
2023-05-08T11:55:52.718Z,2.00
2023-05-08T11:58:20.598Z,2.10
2023-05-08T12:00:48.652Z,2.20
2023-05-08T12:03:20.613Z,2.70
2023-05-08T12:05:49.358Z,2.60
2023-05-08T12:08:18.057Z,2.00
2023-05-08T12:10:52.178Z,2.50
2023-05-08T12:13:20.870Z,2.00
2023-05-08T12:15:49.487Z,2.50
2023-05-08T12:18:17.882Z,2.50
2023-05-08T12:20:45.985Z,2.70
2023-05-08T12:23:14.817Z,2.70
2023-05-08T12:25:42.598Z,2.30
2023-05-08T12:28:10.823Z,2.40
2023-05-08T12:30:38.686Z,2.50
2023-05-08T12:33:07.181Z,2.40
2023-05-08T12:35:34.970Z,2.30
2023-05-08T12:38:03.590Z,2.30
2023-05-08T12:40:32.205Z,2.00
2023-05-08T12:43:03.839Z,2.40
2023-05-08T12:45:34.023Z,2.40
2023-05-08T12:48:08.108Z,2.70
2023-05-08T12:50:40.244Z,2.40
2023-05-08T12:53:09.407Z,2.10
2023-05-08T12:55:37.741Z,2.30
2023-05-08T12:58:16.048Z,2.70
2023-05-08T13:00:44.971Z,2.60
2023-05-08T13:03:14.009Z,2.40
2023-05-08T13:05:42.916Z,2.20
2023-05-08T13:08:11.256Z,2.20
2023-05-08T13:10:46.386Z,2.40
2023-05-08T13:13:15.190Z,2.30
2023-05-08T13:15:43.314Z,2.20
2023-05-08T13:18:11.225Z,2.00
2023-05-08T13:20:39.349Z,2.30
2023-05-08T13:23:07.506Z,2.40
2023-05-08T13:25:38.866Z,2.20
2023-05-08T13:28:07.415Z,2.60
2023-05-08T13:30:35.949Z,2.40
2023-05-08T13:33:04.314Z,2.80
2023-05-08T13:35:32.395Z,2.20
2023-05-08T13:38:00.456Z,2.50
2023-05-08T13:40:30.933Z,2.40
2023-05-08T13:42:58.855Z,2.60
2023-05-08T13:45:26.592Z,2.90
2023-05-08T13:47:54.490Z,2.70
2023-05-08T13:50:22.435Z,2.10
2023-05-08T13:52:52.311Z,3.40
2023-05-08T13:55:23.311Z,2.90
2023-05-08T13:57:51.381Z,2.20
2023-05-08T14:00:19.352Z,2.40
2023-05-08T14:02:48.895Z,2.60
2023-05-08T14:05:17.895Z,2.90
2023-05-08T14:07:45.905Z,2.40
2023-05-08T14:10:13.645Z,2.60
2023-05-08T14:12:41.404Z,3.40
2023-05-08T14:15:09.856Z,2.30
2023-05-08T14:17:37.535Z,2.30
2023-05-08T14:20:05.597Z,2.90
2023-05-08T14:22:33.245Z,2.50
2023-05-08T14:25:10.197Z,2.30
2023-05-08T14:27:38.053Z,2.90
2023-05-08T14:30:07.452Z,3.20
2023-05-08T14:32:35.292Z,2.60
2023-05-08T14:35:03.088Z,2.40
2023-05-08T14:37:31.262Z,2.30
2023-05-08T14:39:59.473Z,2.60
2023-05-08T14:42:27.356Z,2.30
2023-05-08T14:44:56.094Z,2.50
2023-05-08T14:47:24.192Z,2.30
2023-05-08T14:49:53.710Z,2.10
2023-05-08T14:52:21.447Z,2.50
2023-05-08T14:54:53.465Z,2.20
2023-05-08T14:57:21.480Z,2.50
2023-05-08T14:59:54.575Z,2.40
2023-05-08T15:02:23.647Z,2.40
2023-05-08T15:04:52.075Z,2.50
2023-05-08T15:07:19.927Z,2.40
2023-05-08T15:09:48.010Z,2.50
2023-05-08T15:12:15.773Z,2.40
2023-05-08T15:14:43.502Z,2.50
2023-05-08T15:17:11.307Z,2.10
2023-05-08T15:19:38.965Z,2.10
2023-05-08T15:22:06.661Z,2.10
2023-05-08T15:24:34.406Z,2.30
2023-05-08T15:27:02.145Z,2.30
2023-05-08T15:29:30.071Z,2.30
2023-05-08T15:31:57.812Z,2.10
2023-05-08T15:34:29.072Z,2.50
2023-05-08T15:36:59.955Z,1.90
2023-05-08T15:39:27.575Z,2.40
2023-05-08T15:41:55.355Z,2.50
2023-05-08T15:44:24.850Z,2.30
2023-05-08T15:46:54.172Z,2.70
2023-05-08T15:49:25.930Z,2.30
2023-05-08T15:51:53.696Z,2.30
2023-05-08T15:54:21.656Z,2.40
2023-05-08T15:56:49.374Z,1.90
2023-05-08T15:59:17.184Z,2.30
2023-05-08T16:01:46.957Z,2.50
2023-05-08T16:04:14.796Z,2.60
2023-05-08T16:06:42.537Z,2.30
2023-05-08T16:09:10.366Z,4.10
2023-05-08T16:11:38.143Z,3.20
2023-05-08T16:14:06.140Z,2.40
2023-05-08T16:16:34.087Z,2.80
2023-05-08T16:19:01.945Z,3.50
2023-05-08T16:21:29.677Z,2.60
2023-05-08T16:23:57.846Z,2.00
2023-05-08T16:26:26.383Z,2.10
2023-05-08T16:28:54.106Z,2.20
2023-05-08T16:31:21.914Z,2.20
2023-05-08T16:33:49.700Z,3.00
2023-05-08T16:36:17.476Z,2.80
2023-05-08T16:38:45.738Z,2.60
2023-05-08T16:41:13.553Z,3.70
2023-05-08T16:43:41.248Z,2.50
2023-05-08T16:46:09.345Z,2.40
2023-05-08T16:48:37.218Z,2.50
2023-05-08T16:51:04.927Z,2.80
2023-05-08T16:53:33.168Z,2.90
2023-05-08T16:58:28.659Z,3.40
2023-05-08T17:00:56.440Z,4.00
2023-05-08T17:03:24.277Z,3.70
2023-05-08T17:05:52.218Z,3.70
2023-05-08T17:08:20.040Z,3.10
2023-05-08T17:10:47.839Z,2.70
2023-05-08T17:13:15.882Z,3.10
2023-05-08T17:15:43.579Z,3.00
2023-05-08T17:18:11.472Z,2.80
2023-05-08T17:20:40.661Z,4.10
2023-05-08T17:23:09.398Z,2.80
2023-05-08T17:25:37.232Z,2.50
2023-05-08T17:28:05.021Z,2.70
2023-05-08T17:30:32.990Z,2.90
2023-05-08T17:33:00.909Z,3.80
2023-05-08T17:35:28.631Z,6.70
2023-05-08T17:37:56.374Z,5.70
2023-05-08T17:40:25.892Z,4.20
2023-05-08T17:42:53.693Z,4.60
2023-05-08T17:45:21.814Z,4.40
2023-05-08T17:47:49.711Z,3.30
2023-05-08T17:50:17.727Z,4.70
2023-05-08T17:52:45.856Z,4.60
2023-05-08T17:55:13.716Z,3.90
2023-05-08T17:57:41.490Z,3.00
2023-05-08T18:00:09.526Z,2.80
2023-05-08T18:02:37.348Z,3.40
2023-05-08T18:05:05.684Z,3.30
2023-05-08T18:07:33.424Z,3.30
2023-05-08T18:10:01.327Z,3.60
2023-05-08T18:12:29.129Z,4.90
2023-05-08T18:14:56.966Z,5.10
2023-05-08T18:17:24.774Z,6.40
2023-05-08T18:19:52.521Z,9.00
2023-05-08T18:22:20.293Z,11.10
2023-05-08T18:24:50.075Z,9.10
2023-05-08T18:27:17.869Z,6.60
2023-05-08T18:29:45.673Z,5.50
2023-05-08T18:32:13.358Z,5.90
2023-05-08T18:34:41.123Z,8.10
2023-05-08T18:37:09.141Z,6.90
2023-05-08T18:39:36.916Z,5.80
2023-05-08T18:42:05.106Z,5.10
2023-05-08T18:44:32.915Z,5.30
2023-05-08T18:47:05.322Z,3.50
2023-05-08T18:49:33.730Z,3.60
2023-05-08T18:52:04.012Z,3.90
2023-05-08T18:54:31.751Z,3.60
2023-05-08T18:56:59.850Z,4.90
2023-05-08T18:59:36.398Z,7.00
2023-05-08T19:02:04.155Z,11.80
2023-05-08T19:04:32.250Z,54.90
2023-05-08T19:07:03.228Z,16.30
2023-05-08T19:09:31.145Z,9.30
2023-05-08T19:11:59.566Z,7.70
2023-05-08T19:14:39.228Z,10.00
2023-05-08T19:17:32.838Z,10.80
2023-05-08T19:20:11.398Z,14.00
2023-05-08T19:22:39.852Z,13.90
2023-05-08T19:25:08.470Z,15.60
2023-05-08T19:27:36.919Z,16.50
2023-05-08T19:30:05.476Z,27.10
2023-05-08T19:32:38.222Z,31.50
2023-05-08T19:35:17.141Z,31.70
2023-05-08T19:37:58.265Z,30.20
2023-05-08T19:40:54.804Z,27.80
2023-05-08T19:44:27.410Z,26.90
2023-05-08T19:47:30.694Z,26.90
2023-05-08T19:49:58.913Z,23.80
2023-05-08T19:52:26.761Z,28.50
2023-05-08T19:54:54.817Z,34.90
2023-05-08T19:57:22.746Z,38.30
2023-05-08T19:59:50.658Z,39.00
2023-05-08T20:02:20.067Z,37.10
2023-05-08T20:05:14.536Z,34.30
2023-05-08T20:07:36.349Z,35.50
2023-05-08T20:10:04.255Z,34.10
2023-05-08T20:12:32.025Z,31.20
2023-05-08T20:14:59.815Z,29.70
2023-05-08T20:17:27.694Z,32.30
2023-05-08T20:19:55.720Z,29.30
2023-05-08T20:22:23.583Z,32.80
2023-05-08T20:24:51.691Z,27.50
2023-05-08T20:27:19.528Z,23.90
2023-05-08T20:29:47.332Z,23.60
2023-05-08T20:32:16.486Z,18.60
2023-05-08T20:34:44.570Z,18.40
2023-05-08T20:37:12.536Z,18.20
2023-05-08T20:39:40.354Z,16.60
2023-05-08T20:42:08.054Z,15.20
2023-05-08T20:44:35.791Z,15.60
2023-05-08T20:47:03.650Z,16.10
2023-05-08T20:49:31.575Z,15.50
2023-05-08T20:51:59.510Z,13.80
2023-05-08T20:54:29.064Z,15.30
2023-05-08T20:56:56.936Z,18.90
2023-05-08T20:59:24.793Z,22.70
2023-05-08T21:01:52.648Z,23.40
2023-05-08T21:04:20.570Z,26.50
2023-05-08T21:06:49.827Z,27.60
2023-05-08T21:09:19.233Z,31.00
2023-05-08T21:11:47.396Z,29.80
2023-05-08T21:14:15.304Z,34.50
2023-05-08T21:16:43.130Z,31.10
2023-05-08T21:19:13.876Z,28.20
2023-05-08T21:21:41.765Z,18.00
2023-05-08T21:24:09.552Z,14.70
2023-05-08T21:26:37.273Z,14.40
2023-05-08T21:29:05.276Z,10.20
2023-05-08T21:31:38.509Z,10.60
2023-05-08T21:34:07.260Z,9.20
2023-05-08T21:36:35.377Z,8.60
2023-05-08T21:39:04.185Z,8.80
2023-05-08T21:41:33.220Z,7.90
2023-05-08T21:44:01.127Z,8.80
2023-05-08T21:46:31.369Z,9.90
2023-05-08T21:48:59.133Z,8.00
2023-05-08T21:51:27.146Z,8.30
2023-05-08T21:53:54.902Z,9.00
2023-05-08T21:56:23.481Z,9.70
2023-05-08T21:58:51.277Z,10.60
2023-05-08T22:01:19.230Z,10.50
2023-05-08T22:03:47.424Z,11.30
2023-05-08T22:06:15.676Z,9.80
2023-05-08T22:08:43.576Z,11.10
2023-05-08T22:11:11.364Z,12.00
2023-05-08T22:13:39.223Z,11.40
2023-05-08T22:16:07.455Z,11.30
2023-05-08T22:18:35.799Z,11.40
2023-05-08T22:21:03.670Z,10.60
2023-05-08T22:23:32.996Z,11.20
2023-05-08T22:26:00.998Z,10.30
2023-05-08T22:28:28.855Z,10.40
2023-05-08T22:30:56.683Z,10.70
2023-05-08T22:33:24.604Z,9.60
2023-05-08T22:35:55.371Z,9.30
2023-05-08T22:38:23.174Z,10.10
2023-05-08T22:40:52.326Z,11.10
2023-05-08T22:43:20.100Z,11.00
2023-05-08T22:45:48.218Z,10.20
2023-05-08T22:48:15.951Z,9.90
2023-05-08T22:50:44.017Z,9.50
2023-05-08T22:53:12.355Z,9.20
2023-05-08T22:55:40.310Z,10.10
2023-05-08T22:58:08.248Z,10.50
2023-05-08T23:00:36.241Z,10.60
2023-05-08T23:03:06.891Z,13.00
2023-05-08T23:05:35.014Z,12.00
2023-05-08T23:08:02.781Z,13.40
2023-05-08T23:10:30.903Z,12.30
2023-05-08T23:13:01.685Z,15.20
2023-05-08T23:15:29.609Z,13.80
2023-05-08T23:17:57.791Z,14.00
2023-05-08T23:20:25.504Z,12.60
2023-05-08T23:22:53.422Z,14.40
2023-05-08T23:25:21.452Z,14.00
2023-05-08T23:27:49.137Z,13.20
2023-05-08T23:30:17.074Z,13.40
2023-05-08T23:32:45.091Z,13.70
2023-05-08T23:35:13.227Z,13.50
2023-05-08T23:37:41.143Z,13.00
2023-05-08T23:40:18.156Z,13.40
2023-05-08T23:42:45.991Z,13.70
2023-05-08T23:45:14.024Z,12.90
2023-05-08T23:47:42.071Z,12.80
2023-05-08T23:50:10.249Z,12.90
2023-05-08T23:52:37.957Z,11.40
2023-05-08T23:55:08.246Z,12.70
2023-05-08T23:57:36.141Z,12.00
